Riviere-du-Loup, Canada
Current Conditions -  °F | °C
As of 10:25 AM on Monday 24 Nov 2014 (Local Time) from KFVE Reporting Station
Light Rain Light Rain  
Wind Chill: 29°   Ceiling: 300
Heat Index: 38°   Visibility: 1.5mi
Dew Point: 37°   Wind: 15mph
Humidity: 97%   Direction: 140°SE
Pressure: 29.82"   Gusts: NA
Location:  47.84°N, 69.54°W
Report Text: KFVE 241525Z AUTO 14013KT 1 1/2SM -RA BR OVC003 03/03 A2982 RMK AO2 PRESFR P0005 T00330028
Loading
Personal Weather Stations






























Interactive Weather Map New forecast layout! Learn more

10-Day Weather Forecast

Advertisements
Track Severe Weather on mobile